sensor_id;sensor_type;location;lat;lon;timestamp;temperature;humidity
68274;SHT30;55104;47.356;19.448;2022-12-10T00:02:12;7.62;99.99
68274;SHT30;55104;47.356;19.448;2022-12-10T00:05:15;7.67;99.99
68274;SHT30;55104;47.356;19.448;2022-12-10T00:08:17;7.63;99.99
68274;SHT30;55104;47.356;19.448;2022-12-10T00:11:21;7.59;99.99
68274;SHT30;55104;47.356;19.448;2022-12-10T00:14:23;7.57;99.99
68274;SHT30;55104;47.356;19.448;2022-12-10T00:17:25;7.66;99.99
68274;SHT30;55104;47.356;19.448;2022-12-10T00:20:27;7.69;99.99
68274;SHT30;55104;47.356;19.448;2022-12-10T00:23:29;7.66;99.99
68274;SHT30;55104;47.356;19.448;2022-12-10T00:26:38;7.71;99.99
68274;SHT30;55104;47.356;19.448;2022-12-10T00:29:40;7.87;99.99
68274;SHT30;55104;47.356;19.448;2022-12-10T00:32:42;7.97;99.99
68274;SHT30;55104;47.356;19.448;2022-12-10T00:35:44;8.15;99.99
68274;SHT30;55104;47.356;19.448;2022-12-10T00:38:47;8.28;99.99
68274;SHT30;55104;47.356;19.448;2022-12-10T00:41:49;8.26;99.99
68274;SHT30;55104;47.356;19.448;2022-12-10T00:44:51;8.22;99.99
68274;SHT30;55104;47.356;19.448;2022-12-10T00:47:53;8.26;99.99
68274;SHT30;55104;47.356;19.448;2022-12-10T00:53:58;8.26;99.99
68274;SHT30;55104;47.356;19.448;2022-12-10T00:57:00;8.21;99.99
68274;SHT30;55104;47.356;19.448;2022-12-10T01:00:03;8.26;99.99
68274;SHT30;55104;47.356;19.448;2022-12-10T01:03:06;8.12;99.99
68274;SHT30;55104;47.356;19.448;2022-12-10T01:06:18;8.05;99.99
68274;SHT30;55104;47.356;19.448;2022-12-10T01:09:26;8.11;99.99
68274;SHT30;55104;47.356;19.448;2022-12-10T01:12:28;7.99;99.99
68274;SHT30;55104;47.356;19.448;2022-12-10T01:15:30;7.95;99.99
68274;SHT30;55104;47.356;19.448;2022-12-10T01:18:33;7.95;99.99
68274;SHT30;55104;47.356;19.448;2022-12-10T01:21:35;7.82;99.99
68274;SHT30;55104;47.356;19.448;2022-12-10T01:24:37;7.82;99.99
68274;SHT30;55104;47.356;19.448;2022-12-10T01:27:40;7.77;99.99
68274;SHT30;55104;47.356;19.448;2022-12-10T01:30:42;7.73;99.99
68274;SHT30;55104;47.356;19.448;2022-12-10T01:33:44;7.70;99.99
68274;SHT30;55104;47.356;19.448;2022-12-10T01:36:51;7.73;99.99
68274;SHT30;55104;47.356;19.448;2022-12-10T01:39:53;7.71;99.99
68274;SHT30;55104;47.356;19.448;2022-12-10T01:42:55;7.70;99.99
68274;SHT30;55104;47.356;19.448;2022-12-10T01:46:01;7.71;99.99
68274;SHT30;55104;47.356;19.448;2022-12-10T01:49:09;7.78;99.99
68274;SHT30;55104;47.356;19.448;2022-12-10T01:52:12;7.78;99.99
68274;SHT30;55104;47.356;19.448;2022-12-10T01:59:05;7.91;99.99
68274;SHT30;55104;47.356;19.448;2022-12-10T02:02:28;7.84;99.99
68274;SHT30;55104;47.356;19.448;2022-12-10T02:05:40;7.84;99.99
68274;SHT30;55104;47.356;19.448;2022-12-10T02:08:54;7.84;99.99
68274;SHT30;55104;47.356;19.448;2022-12-10T02:15:12;7.75;99.70
68274;SHT30;55104;47.356;19.448;2022-12-10T02:18:28;7.78;99.65
68274;SHT30;55104;47.356;19.448;2022-12-10T02:21:34;7.70;99.60
68274;SHT30;55104;47.356;19.448;2022-12-10T02:24:39;7.62;99.64
68274;SHT30;55104;47.356;19.448;2022-12-10T02:27:54;7.54;99.67
68274;SHT30;55104;47.356;19.448;2022-12-10T02:31:01;7.53;99.61
68274;SHT30;55104;47.356;19.448;2022-12-10T02:34:07;7.49;99.47
68274;SHT30;55104;47.356;19.448;2022-12-10T02:37:22;7.46;99.46
68274;SHT30;55104;47.356;19.448;2022-12-10T02:40:32;7.35;99.24
68274;SHT30;55104;47.356;19.448;2022-12-10T02:43:37;7.33;99.23
68274;SHT30;55104;47.356;19.448;2022-12-10T02:46:40;7.27;99.22
68274;SHT30;55104;47.356;19.448;2022-12-10T02:49:47;7.20;99.04
68274;SHT30;55104;47.356;19.448;2022-12-10T02:52:50;7.05;99.09
68274;SHT30;55104;47.356;19.448;2022-12-10T03:02:34;6.87;99.16
68274;SHT30;55104;47.356;19.448;2022-12-10T03:05:47;6.83;99.30
68274;SHT30;55104;47.356;19.448;2022-12-10T03:09:05;6.81;99.33
68274;SHT30;55104;47.356;19.448;2022-12-10T03:12:21;6.81;99.26
68274;SHT30;55104;47.356;19.448;2022-12-10T03:15:26;6.66;99.23
68274;SHT30;55104;47.356;19.448;2022-12-10T03:18:31;6.69;99.24
68274;SHT30;55104;47.356;19.448;2022-12-10T03:21:37;6.70;99.18
68274;SHT30;55104;47.356;19.448;2022-12-10T03:24:42;6.63;99.20
68274;SHT30;55104;47.356;19.448;2022-12-10T03:27:45;6.70;99.16
68274;SHT30;55104;47.356;19.448;2022-12-10T03:30:51;6.64;99.12
68274;SHT30;55104;47.356;19.448;2022-12-10T03:33:56;6.61;99.08
68274;SHT30;55104;47.356;19.448;2022-12-10T03:36:58;6.61;99.25
68274;SHT30;55104;47.356;19.448;2022-12-10T03:40:01;6.57;99.38
68274;SHT30;55104;47.356;19.448;2022-12-10T03:43:04;6.58;99.43
68274;SHT30;55104;47.356;19.448;2022-12-10T03:46:06;6.61;99.47
68274;SHT30;55104;47.356;19.448;2022-12-10T03:49:09;6.58;99.48
68274;SHT30;55104;47.356;19.448;2022-12-10T03:52:11;6.58;99.56
68274;SHT30;55104;47.356;19.448;2022-12-10T03:55:14;6.58;99.56
68274;SHT30;55104;47.356;19.448;2022-12-10T03:58:16;6.58;99.51
68274;SHT30;55104;47.356;19.448;2022-12-10T04:01:21;6.58;99.55
68274;SHT30;55104;47.356;19.448;2022-12-10T04:04:24;6.61;99.58
68274;SHT30;55104;47.356;19.448;2022-12-10T04:07:26;6.57;99.54
68274;SHT30;55104;47.356;19.448;2022-12-10T04:10:28;6.66;99.41
68274;SHT30;55104;47.356;19.448;2022-12-10T04:13:34;6.66;99.32
68274;SHT30;55104;47.356;19.448;2022-12-10T04:16:55;6.66;99.24
68274;SHT30;55104;47.356;19.448;2022-12-10T04:19:57;6.63;99.16
68274;SHT30;55104;47.356;19.448;2022-12-10T04:23:00;6.58;99.00
68274;SHT30;55104;47.356;19.448;2022-12-10T04:26:20;6.52;98.83
68274;SHT30;55104;47.356;19.448;2022-12-10T04:29:41;6.53;98.83
68274;SHT30;55104;47.356;19.448;2022-12-10T04:32:43;6.50;98.77
68274;SHT30;55104;47.356;19.448;2022-12-10T04:35:45;6.44;98.80
68274;SHT30;55104;47.356;19.448;2022-12-10T04:38:47;6.42;98.81
68274;SHT30;55104;47.356;19.448;2022-12-10T04:41:49;6.36;98.95
68274;SHT30;55104;47.356;19.448;2022-12-10T04:44:51;6.37;99.16
68274;SHT30;55104;47.356;19.448;2022-12-10T04:47:53;6.35;99.07
68274;SHT30;55104;47.356;19.448;2022-12-10T04:50:55;6.40;98.93
68274;SHT30;55104;47.356;19.448;2022-12-10T04:53:58;6.42;98.91
68274;SHT30;55104;47.356;19.448;2022-12-10T04:57:01;6.40;98.81
68274;SHT30;55104;47.356;19.448;2022-12-10T05:00:03;6.47;98.54
68274;SHT30;55104;47.356;19.448;2022-12-10T05:03:05;6.39;98.52
68274;SHT30;55104;47.356;19.448;2022-12-10T05:06:09;6.39;98.43
68274;SHT30;55104;47.356;19.448;2022-12-10T05:09:12;6.47;98.29
68274;SHT30;55104;47.356;19.448;2022-12-10T05:12:14;6.39;97.54
68274;SHT30;55104;47.356;19.448;2022-12-10T05:15:16;6.22;96.58
68274;SHT30;55104;47.356;19.448;2022-12-10T05:18:19;6.11;96.90
68274;SHT30;55104;47.356;19.448;2022-12-10T05:21:22;6.04;97.09
68274;SHT30;55104;47.356;19.448;2022-12-10T05:24:25;6.01;96.84
68274;SHT30;55104;47.356;19.448;2022-12-10T05:27:31;5.98;96.84
68274;SHT30;55104;47.356;19.448;2022-12-10T05:30:37;5.91;96.91
68274;SHT30;55104;47.356;19.448;2022-12-10T05:33:39;5.88;96.80
68274;SHT30;55104;47.356;19.448;2022-12-10T05:36:42;5.84;97.16
68274;SHT30;55104;47.356;19.448;2022-12-10T05:39:44;5.73;97.38
68274;SHT30;55104;47.356;19.448;2022-12-10T05:42:46;5.86;97.16
68274;SHT30;55104;47.356;19.448;2022-12-10T05:45:48;5.73;97.28
68274;SHT30;55104;47.356;19.448;2022-12-10T05:48:51;5.77;97.43
68274;SHT30;55104;47.356;19.448;2022-12-10T05:51:54;5.71;97.39
68274;SHT30;55104;47.356;19.448;2022-12-10T05:54:57;5.63;97.38
68274;SHT30;55104;47.356;19.448;2022-12-10T05:57:59;5.63;97.68
68274;SHT30;55104;47.356;19.448;2022-12-10T06:01:13;5.60;97.85
68274;SHT30;55104;47.356;19.448;2022-12-10T06:04:16;5.67;97.84
68274;SHT30;55104;47.356;19.448;2022-12-10T06:07:18;5.67;97.71
68274;SHT30;55104;47.356;19.448;2022-12-10T06:10:20;5.60;97.69
68274;SHT30;55104;47.356;19.448;2022-12-10T06:13:22;5.46;98.02
68274;SHT30;55104;47.356;19.448;2022-12-10T06:16:26;5.59;97.41
68274;SHT30;55104;47.356;19.448;2022-12-10T06:19:29;5.56;97.21
68274;SHT30;55104;47.356;19.448;2022-12-10T06:22:31;5.44;97.33
68274;SHT30;55104;47.356;19.448;2022-12-10T06:25:33;5.36;97.48
68274;SHT30;55104;47.356;19.448;2022-12-10T06:28:36;5.43;97.40
68274;SHT30;55104;47.356;19.448;2022-12-10T06:31:38;5.42;97.44
68274;SHT30;55104;47.356;19.448;2022-12-10T06:34:40;5.46;97.54
68274;SHT30;55104;47.356;19.448;2022-12-10T06:37:43;5.39;97.44
68274;SHT30;55104;47.356;19.448;2022-12-10T06:40:45;5.46;97.45
68274;SHT30;55104;47.356;19.448;2022-12-10T06:43:48;5.47;97.54
68274;SHT30;55104;47.356;19.448;2022-12-10T06:46:50;5.50;97.60
68274;SHT30;55104;47.356;19.448;2022-12-10T06:49:52;5.52;97.41
68274;SHT30;55104;47.356;19.448;2022-12-10T06:52:54;5.49;97.32
68274;SHT30;55104;47.356;19.448;2022-12-10T06:56:01;5.52;97.41
68274;SHT30;55104;47.356;19.448;2022-12-10T06:59:04;5.49;97.38
68274;SHT30;55104;47.356;19.448;2022-12-10T07:02:09;5.47;97.43
68274;SHT30;55104;47.356;19.448;2022-12-10T07:05:11;5.44;97.15
68274;SHT30;55104;47.356;19.448;2022-12-10T07:08:13;5.49;97.36
68274;SHT30;55104;47.356;19.448;2022-12-10T07:11:18;5.46;97.34
68274;SHT30;55104;47.356;19.448;2022-12-10T07:14:21;5.52;97.35
68274;SHT30;55104;47.356;19.448;2022-12-10T07:17:23;5.63;97.28
68274;SHT30;55104;47.356;19.448;2022-12-10T07:20:25;5.56;97.30
68274;SHT30;55104;47.356;19.448;2022-12-10T07:23:27;5.54;97.40
68274;SHT30;55104;47.356;19.448;2022-12-10T07:26:32;5.52;97.54
68274;SHT30;55104;47.356;19.448;2022-12-10T07:29:35;5.53;97.59
68274;SHT30;55104;47.356;19.448;2022-12-10T07:32:37;5.60;97.38
68274;SHT30;55104;47.356;19.448;2022-12-10T07:35:39;5.66;97.36
68274;SHT30;55104;47.356;19.448;2022-12-10T07:38:51;5.67;97.11
68274;SHT30;55104;47.356;19.448;2022-12-10T07:41:53;5.75;96.86
68274;SHT30;55104;47.356;19.448;2022-12-10T07:44:55;5.74;96.83
68274;SHT30;55104;47.356;19.448;2022-12-10T07:47:58;5.83;96.38
68274;SHT30;55104;47.356;19.448;2022-12-10T07:51:00;5.78;96.71
68274;SHT30;55104;47.356;19.448;2022-12-10T07:54:02;5.78;96.34
68274;SHT30;55104;47.356;19.448;2022-12-10T07:57:05;5.80;96.51
68274;SHT30;55104;47.356;19.448;2022-12-10T08:00:07;5.75;96.42
68274;SHT30;55104;47.356;19.448;2022-12-10T08:03:13;5.84;96.77
68274;SHT30;55104;47.356;19.448;2022-12-10T08:06:17;5.83;96.47
68274;SHT30;55104;47.356;19.448;2022-12-10T08:09:19;5.70;96.62
68274;SHT30;55104;47.356;19.448;2022-12-10T08:12:21;5.73;96.60
68274;SHT30;55104;47.356;19.448;2022-12-10T08:15:23;5.70;96.24
68274;SHT30;55104;47.356;19.448;2022-12-10T08:18:25;5.59;96.16
68274;SHT30;55104;47.356;19.448;2022-12-10T08:21:29;5.66;96.34
68274;SHT30;55104;47.356;19.448;2022-12-10T08:24:32;5.57;96.43
68274;SHT30;55104;47.356;19.448;2022-12-10T08:27:34;5.63;96.35
68274;SHT30;55104;47.356;19.448;2022-12-10T08:30:35;5.54;96.59
68274;SHT30;55104;47.356;19.448;2022-12-10T08:33:38;5.52;96.67
68274;SHT30;55104;47.356;19.448;2022-12-10T08:36:41;5.53;96.44
68274;SHT30;55104;47.356;19.448;2022-12-10T08:39:43;5.66;96.17
68274;SHT30;55104;47.356;19.448;2022-12-10T08:42:46;5.59;96.02
68274;SHT30;55104;47.356;19.448;2022-12-10T08:45:53;5.60;96.34
68274;SHT30;55104;47.356;19.448;2022-12-10T08:48:57;5.67;96.03
68274;SHT30;55104;47.356;19.448;2022-12-10T08:52:00;5.74;95.96
68274;SHT30;55104;47.356;19.448;2022-12-10T08:55:03;5.81;95.93
68274;SHT30;55104;47.356;19.448;2022-12-10T08:58:05;5.81;95.51
68274;SHT30;55104;47.356;19.448;2022-12-10T09:01:08;5.91;95.31
68274;SHT30;55104;47.356;19.448;2022-12-10T09:04:10;5.93;95.52
68274;SHT30;55104;47.356;19.448;2022-12-10T09:07:14;5.95;95.04
68274;SHT30;55104;47.356;19.448;2022-12-10T09:10:16;6.11;95.46
68274;SHT30;55104;47.356;19.448;2022-12-10T09:13:18;6.18;95.14
68274;SHT30;55104;47.356;19.448;2022-12-10T09:16:21;6.19;94.89
68274;SHT30;55104;47.356;19.448;2022-12-10T09:19:24;6.18;95.09
68274;SHT30;55104;47.356;19.448;2022-12-10T09:22:26;6.16;94.51
68274;SHT30;55104;47.356;19.448;2022-12-10T09:25:28;6.15;94.56
68274;SHT30;55104;47.356;19.448;2022-12-10T09:28:30;6.09;94.28
68274;SHT30;55104;47.356;19.448;2022-12-10T09:31:32;6.21;94.37
68274;SHT30;55104;47.356;19.448;2022-12-10T09:34:34;6.26;94.23
68274;SHT30;55104;47.356;19.448;2022-12-10T09:37:36;6.28;94.26
68274;SHT30;55104;47.356;19.448;2022-12-10T09:40:45;6.22;94.12
68274;SHT30;55104;47.356;19.448;2022-12-10T09:47:00;6.14;93.56
68274;SHT30;55104;47.356;19.448;2022-12-10T09:53:21;6.09;93.89
68274;SHT30;55104;47.356;19.448;2022-12-10T09:56:33;6.08;94.45
68274;SHT30;55104;47.356;19.448;2022-12-10T09:59:42;6.04;94.30
68274;SHT30;55104;47.356;19.448;2022-12-10T10:02:45;6.12;94.21
68274;SHT30;55104;47.356;19.448;2022-12-10T10:05:50;6.12;93.90
68274;SHT30;55104;47.356;19.448;2022-12-10T10:08:57;5.95;94.64
68274;SHT30;55104;47.356;19.448;2022-12-10T10:12:00;5.98;94.85
68274;SHT30;55104;47.356;19.448;2022-12-10T10:15:15;6.02;94.35
68274;SHT30;55104;47.356;19.448;2022-12-10T10:18:33;6.05;94.31
68274;SHT30;55104;47.356;19.448;2022-12-10T10:21:39;6.04;94.48
68274;SHT30;55104;47.356;19.448;2022-12-10T10:24:43;6.08;94.71
68274;SHT30;55104;47.356;19.448;2022-12-10T10:27:49;6.05;94.65
68274;SHT30;55104;47.356;19.448;2022-12-10T10:30:52;6.02;94.52
68274;SHT30;55104;47.356;19.448;2022-12-10T10:34:02;6.08;94.92
68274;SHT30;55104;47.356;19.448;2022-12-10T10:37:04;6.05;94.51
68274;SHT30;55104;47.356;19.448;2022-12-10T10:40:21;6.18;94.83
68274;SHT30;55104;47.356;19.448;2022-12-10T10:43:39;6.15;94.16
68274;SHT30;55104;47.356;19.448;2022-12-10T10:46:44;6.08;94.22
68274;SHT30;55104;47.356;19.448;2022-12-10T10:49:47;6.05;94.49
68274;SHT30;55104;47.356;19.448;2022-12-10T10:52:49;6.04;94.56
68274;SHT30;55104;47.356;19.448;2022-12-10T10:55:54;5.97;94.38
68274;SHT30;55104;47.356;19.448;2022-12-10T11:02:23;5.95;95.11
68274;SHT30;55104;47.356;19.448;2022-12-10T11:05:30;5.94;95.12
68274;SHT30;55104;47.356;19.448;2022-12-10T11:08:37;5.88;95.15
68274;SHT30;55104;47.356;19.448;2022-12-10T11:11:42;5.90;95.46
68274;SHT30;55104;47.356;19.448;2022-12-10T11:14:44;5.93;95.19
68274;SHT30;55104;47.356;19.448;2022-12-10T11:17:52;5.87;95.27
68274;SHT30;55104;47.356;19.448;2022-12-10T11:20:59;5.81;95.50
68274;SHT30;55104;47.356;19.448;2022-12-10T11:24:10;5.91;95.48
68274;SHT30;55104;47.356;19.448;2022-12-10T11:27:30;5.88;95.24
68274;SHT30;55104;47.356;19.448;2022-12-10T11:30:41;5.86;95.48
68274;SHT30;55104;47.356;19.448;2022-12-10T11:40:40;5.97;94.30
68274;SHT30;55104;47.356;19.448;2022-12-10T11:50:57;5.77;94.57
68274;SHT30;55104;47.356;19.448;2022-12-10T11:57:27;5.83;95.18
68274;SHT30;55104;47.356;19.448;2022-12-10T12:00:41;5.78;94.70
68274;SHT30;55104;47.356;19.448;2022-12-10T12:14:16;5.75;95.10
68274;SHT30;55104;47.356;19.448;2022-12-10T12:17:40;5.64;95.01
68274;SHT30;55104;47.356;19.448;2022-12-10T12:20:49;5.64;95.33
68274;SHT30;55104;47.356;19.448;2022-12-10T12:23:58;5.60;95.37
68274;SHT30;55104;47.356;19.448;2022-12-10T12:27:35;5.70;95.53
68274;SHT30;55104;47.356;19.448;2022-12-10T12:30:39;5.71;95.65
68274;SHT30;55104;47.356;19.448;2022-12-10T12:34:01;5.73;95.41
68274;SHT30;55104;47.356;19.448;2022-12-10T12:37:04;5.64;95.79
68274;SHT30;55104;47.356;19.448;2022-12-10T12:40:20;5.67;95.75
68274;SHT30;55104;47.356;19.448;2022-12-10T12:44:02;5.67;95.59
68274;SHT30;55104;47.356;19.448;2022-12-10T12:47:41;5.77;95.72
68274;SHT30;55104;47.356;19.448;2022-12-10T12:51:22;5.69;95.84
68274;SHT30;55104;47.356;19.448;2022-12-10T12:54:16;5.74;95.65
68274;SHT30;55104;47.356;19.448;2022-12-10T12:57:39;5.63;95.78
68274;SHT30;55104;47.356;19.448;2022-12-10T13:00:46;5.75;95.42
68274;SHT30;55104;47.356;19.448;2022-12-10T13:03:49;5.69;95.89
68274;SHT30;55104;47.356;19.448;2022-12-10T13:13:34;5.60;96.41
68274;SHT30;55104;47.356;19.448;2022-12-10T13:19:49;5.70;96.13
68274;SHT30;55104;47.356;19.448;2022-12-10T13:22:57;5.69;96.33
68274;SHT30;55104;47.356;19.448;2022-12-10T13:26:01;5.71;96.02
68274;SHT30;55104;47.356;19.448;2022-12-10T13:29:24;5.64;96.00
68274;SHT30;55104;47.356;19.448;2022-12-10T13:35:32;5.67;96.06
68274;SHT30;55104;47.356;19.448;2022-12-10T13:38:56;5.60;96.38
68274;SHT30;55104;47.356;19.448;2022-12-10T13:45:35;5.61;96.35
68274;SHT30;55104;47.356;19.448;2022-12-10T13:48:37;5.60;96.23
68274;SHT30;55104;47.356;19.448;2022-12-10T13:52:03;5.53;96.45
68274;SHT30;55104;47.356;19.448;2022-12-10T14:08:32;5.59;96.17
68274;SHT30;55104;47.356;19.448;2022-12-10T14:11:38;5.56;96.40
68274;SHT30;55104;47.356;19.448;2022-12-10T14:14:55;5.46;96.90
68274;SHT30;55104;47.356;19.448;2022-12-10T14:18:03;5.52;96.85
68274;SHT30;55104;47.356;19.448;2022-12-10T14:21:06;5.44;96.92
68274;SHT30;55104;47.356;19.448;2022-12-10T14:24:30;5.44;97.15
68274;SHT30;55104;47.356;19.448;2022-12-10T14:27:36;5.47;97.10
68274;SHT30;55104;47.356;19.448;2022-12-10T14:30:43;5.54;96.77
68274;SHT30;55104;47.356;19.448;2022-12-10T14:33:47;5.47;96.70
68274;SHT30;55104;47.356;19.448;2022-12-10T14:36:58;5.47;96.41
68274;SHT30;55104;47.356;19.448;2022-12-10T14:40:06;5.53;96.31
68274;SHT30;55104;47.356;19.448;2022-12-10T14:43:18;5.47;96.39
68274;SHT30;55104;47.356;19.448;2022-12-10T14:46:27;5.38;96.53
68274;SHT30;55104;47.356;19.448;2022-12-10T14:49:31;5.39;96.44
68274;SHT30;55104;47.356;19.448;2022-12-10T14:52:43;5.38;96.68
68274;SHT30;55104;47.356;19.448;2022-12-10T14:55:48;5.36;96.68
68274;SHT30;55104;47.356;19.448;2022-12-10T15:01:54;5.33;97.12
68274;SHT30;55104;47.356;19.448;2022-12-10T15:04:58;5.42;96.88
68274;SHT30;55104;47.356;19.448;2022-12-10T15:08:07;5.29;97.14
68274;SHT30;55104;47.356;19.448;2022-12-10T15:11:19;5.36;96.82
68274;SHT30;55104;47.356;19.448;2022-12-10T15:14:22;5.49;96.38
68274;SHT30;55104;47.356;19.448;2022-12-10T15:17:37;5.36;96.78
68274;SHT30;55104;47.356;19.448;2022-12-10T15:23:49;5.38;96.73
68274;SHT30;55104;47.356;19.448;2022-12-10T15:26:52;5.38;96.81
68274;SHT30;55104;47.356;19.448;2022-12-10T15:29:54;5.33;97.05
68274;SHT30;55104;47.356;19.448;2022-12-10T15:32:56;5.31;97.10
68274;SHT30;55104;47.356;19.448;2022-12-10T15:35:59;5.28;96.92
68274;SHT30;55104;47.356;19.448;2022-12-10T15:39:15;5.22;96.98
68274;SHT30;55104;47.356;19.448;2022-12-10T15:45:42;5.32;96.95
68274;SHT30;55104;47.356;19.448;2022-12-10T15:48:45;5.28;96.99
68274;SHT30;55104;47.356;19.448;2022-12-10T15:51:47;5.35;96.93
68274;SHT30;55104;47.356;19.448;2022-12-10T15:54:51;5.32;96.83
68274;SHT30;55104;47.356;19.448;2022-12-10T15:57:53;5.29;97.02
68274;SHT30;55104;47.356;19.448;2022-12-10T16:00:55;5.25;97.07
68274;SHT30;55104;47.356;19.448;2022-12-10T16:03:57;5.25;97.02
68274;SHT30;55104;47.356;19.448;2022-12-10T16:06:59;5.22;97.07
68274;SHT30;55104;47.356;19.448;2022-12-10T16:10:02;5.25;97.05
68274;SHT30;55104;47.356;19.448;2022-12-10T16:13:10;5.28;96.94
68274;SHT30;55104;47.356;19.448;2022-12-10T16:16:12;5.23;96.98
68274;SHT30;55104;47.356;19.448;2022-12-10T16:19:15;5.28;97.01
68274;SHT30;55104;47.356;19.448;2022-12-10T16:22:17;5.35;96.77
68274;SHT30;55104;47.356;19.448;2022-12-10T16:25:20;5.25;97.05
68274;SHT30;55104;47.356;19.448;2022-12-10T16:28:22;5.35;96.81
68274;SHT30;55104;47.356;19.448;2022-12-10T16:31:25;5.31;96.76
68274;SHT30;55104;47.356;19.448;2022-12-10T16:34:27;5.28;97.12
68274;SHT30;55104;47.356;19.448;2022-12-10T16:37:29;5.21;97.14
68274;SHT30;55104;47.356;19.448;2022-12-10T16:40:31;5.28;97.17
68274;SHT30;55104;47.356;19.448;2022-12-10T16:43:34;5.28;96.83
68274;SHT30;55104;47.356;19.448;2022-12-10T16:46:35;5.25;96.98
68274;SHT30;55104;47.356;19.448;2022-12-10T16:49:38;5.23;97.17
68274;SHT30;55104;47.356;19.448;2022-12-10T16:52:41;5.21;97.43
68274;SHT30;55104;47.356;19.448;2022-12-10T16:55:43;5.29;96.93
68274;SHT30;55104;47.356;19.448;2022-12-10T16:58:45;5.29;97.03
68274;SHT30;55104;47.356;19.448;2022-12-10T17:01:48;5.28;97.05
68274;SHT30;55104;47.356;19.448;2022-12-10T17:04:50;5.26;97.21
68274;SHT30;55104;47.356;19.448;2022-12-10T17:07:52;5.26;97.05
68274;SHT30;55104;47.356;19.448;2022-12-10T17:10:55;5.32;96.98
68274;SHT30;55104;47.356;19.448;2022-12-10T17:14:26;5.29;96.83
68274;SHT30;55104;47.356;19.448;2022-12-10T17:17:29;5.29;97.13
68274;SHT30;55104;47.356;19.448;2022-12-10T17:20:31;5.38;96.98
68274;SHT30;55104;47.356;19.448;2022-12-10T17:23:33;5.33;96.98
68274;SHT30;55104;47.356;19.448;2022-12-10T17:26:41;5.32;97.24
68274;SHT30;55104;47.356;19.448;2022-12-10T17:29:45;5.33;97.07
68274;SHT30;55104;47.356;19.448;2022-12-10T17:32:54;5.36;96.87
68274;SHT30;55104;47.356;19.448;2022-12-10T17:35:56;5.32;97.16
68274;SHT30;55104;47.356;19.448;2022-12-10T17:38:58;5.42;96.97
68274;SHT30;55104;47.356;19.448;2022-12-10T17:42:00;5.40;97.01
68274;SHT30;55104;47.356;19.448;2022-12-10T17:45:02;5.32;97.45
68274;SHT30;55104;47.356;19.448;2022-12-10T17:48:05;5.47;97.14
68274;SHT30;55104;47.356;19.448;2022-12-10T17:51:11;5.49;97.03
68274;SHT30;55104;47.356;19.448;2022-12-10T17:54:13;5.47;97.05
68274;SHT30;55104;47.356;19.448;2022-12-10T17:57:18;5.50;97.04
68274;SHT30;55104;47.356;19.448;2022-12-10T18:00:22;5.46;97.19
68274;SHT30;55104;47.356;19.448;2022-12-10T18:03:25;5.50;97.34
68274;SHT30;55104;47.356;19.448;2022-12-10T18:06:28;5.52;97.08
68274;SHT30;55104;47.356;19.448;2022-12-10T18:09:31;5.49;97.09
68274;SHT30;55104;47.356;19.448;2022-12-10T18:12:33;5.57;97.00
68274;SHT30;55104;47.356;19.448;2022-12-10T18:15:35;5.53;97.04
68274;SHT30;55104;47.356;19.448;2022-12-10T18:18:38;5.50;97.31
68274;SHT30;55104;47.356;19.448;2022-12-10T18:21:41;5.56;97.26
68274;SHT30;55104;47.356;19.448;2022-12-10T18:24:43;5.56;97.37
68274;SHT30;55104;47.356;19.448;2022-12-10T18:27:45;5.53;97.56
68274;SHT30;55104;47.356;19.448;2022-12-10T18:30:47;5.50;97.56
68274;SHT30;55104;47.356;19.448;2022-12-10T18:33:53;5.52;97.70
68274;SHT30;55104;47.356;19.448;2022-12-10T18:36:55;5.60;97.43
68274;SHT30;55104;47.356;19.448;2022-12-10T18:39:58;5.66;97.27
68274;SHT30;55104;47.356;19.448;2022-12-10T18:43:00;5.64;97.09
68274;SHT30;55104;47.356;19.448;2022-12-10T18:46:02;5.67;97.04
68274;SHT30;55104;47.356;19.448;2022-12-10T18:49:05;5.60;97.25
68274;SHT30;55104;47.356;19.448;2022-12-10T18:52:07;5.54;97.56
68274;SHT30;55104;47.356;19.448;2022-12-10T18:55:09;5.70;97.29
68274;SHT30;55104;47.356;19.448;2022-12-10T18:58:13;5.64;97.23
68274;SHT30;55104;47.356;19.448;2022-12-10T19:01:18;5.63;97.28
68274;SHT30;55104;47.356;19.448;2022-12-10T19:04:21;5.59;97.56
68274;SHT30;55104;47.356;19.448;2022-12-10T19:07:23;5.61;97.52
68274;SHT30;55104;47.356;19.448;2022-12-10T19:10:25;5.60;97.50
68274;SHT30;55104;47.356;19.448;2022-12-10T19:13:27;5.61;97.60
68274;SHT30;55104;47.356;19.448;2022-12-10T19:16:29;5.59;97.48
68274;SHT30;55104;47.356;19.448;2022-12-10T19:19:31;5.67;97.55
68274;SHT30;55104;47.356;19.448;2022-12-10T19:22:34;5.66;97.23
68274;SHT30;55104;47.356;19.448;2022-12-10T19:25:35;5.63;97.48
68274;SHT30;55104;47.356;19.448;2022-12-10T19:28:38;5.73;97.27
68274;SHT30;55104;47.356;19.448;2022-12-10T19:31:40;5.70;97.32
68274;SHT30;55104;47.356;19.448;2022-12-10T19:34:43;5.70;97.18
68274;SHT30;55104;47.356;19.448;2022-12-10T19:37:46;5.56;97.61
68274;SHT30;55104;47.356;19.448;2022-12-10T19:40:55;5.57;97.81
68274;SHT30;55104;47.356;19.448;2022-12-10T19:43:56;5.64;97.61
68274;SHT30;55104;47.356;19.448;2022-12-10T19:46:59;5.60;97.45
68274;SHT30;55104;47.356;19.448;2022-12-10T19:50:02;5.59;97.48
68274;SHT30;55104;47.356;19.448;2022-12-10T19:53:04;5.64;97.50
68274;SHT30;55104;47.356;19.448;2022-12-10T19:56:21;5.60;97.50
68274;SHT30;55104;47.356;19.448;2022-12-10T19:59:24;5.54;97.84
68274;SHT30;55104;47.356;19.448;2022-12-10T20:02:26;5.64;97.73
68274;SHT30;55104;47.356;19.448;2022-12-10T20:05:29;5.64;97.43
68274;SHT30;55104;47.356;19.448;2022-12-10T20:08:31;5.63;97.24
68274;SHT30;55104;47.356;19.448;2022-12-10T20:11:33;5.66;97.36
68274;SHT30;55104;47.356;19.448;2022-12-10T20:14:35;5.64;97.25
68274;SHT30;55104;47.356;19.448;2022-12-10T20:17:37;5.69;97.22
68274;SHT30;55104;47.356;19.448;2022-12-10T20:20:39;5.69;97.33
68274;SHT30;55104;47.356;19.448;2022-12-10T20:23:41;5.70;97.19
68274;SHT30;55104;47.356;19.448;2022-12-10T20:26:45;5.67;97.44
68274;SHT30;55104;47.356;19.448;2022-12-10T20:29:49;5.70;97.42
68274;SHT30;55104;47.356;19.448;2022-12-10T20:32:51;5.71;97.44
68274;SHT30;55104;47.356;19.448;2022-12-10T20:35:53;5.64;97.61
68274;SHT30;55104;47.356;19.448;2022-12-10T20:38:55;5.66;97.49
68274;SHT30;55104;47.356;19.448;2022-12-10T20:41:57;5.67;97.45
68274;SHT30;55104;47.356;19.448;2022-12-10T20:45:00;5.64;97.47
68274;SHT30;55104;47.356;19.448;2022-12-10T20:48:02;5.63;97.56
68274;SHT30;55104;47.356;19.448;2022-12-10T20:51:04;5.56;97.83
68274;SHT30;55104;47.356;19.448;2022-12-10T20:54:06;5.54;98.09
68274;SHT30;55104;47.356;19.448;2022-12-10T20:57:10;5.60;97.90
68274;SHT30;55104;47.356;19.448;2022-12-10T21:00:18;5.57;97.85
68274;SHT30;55104;47.356;19.448;2022-12-10T21:03:20;5.61;97.90